createdAt,value
2023-03-02T00:00:21.028Z,100970.34
2023-03-02T00:02:49.529Z,100978.00
2023-03-02T00:05:17.478Z,100892.09
2023-03-02T00:07:45.320Z,100959.44
2023-03-02T00:10:14.090Z,100976.53
2023-03-02T00:12:43.051Z,100971.44
2023-03-02T00:15:11.081Z,100975.97
2023-03-02T00:38:16.083Z,100948.50
2023-03-02T00:40:47.249Z,100948.50
2023-03-02T00:43:16.683Z,100948.41
2023-03-02T00:45:45.006Z,100945.66
2023-03-02T00:48:12.872Z,100937.25
2023-03-02T00:50:41.640Z,100931.31
2023-03-02T00:53:10.519Z,100921.44
2023-03-02T00:55:38.431Z,100932.37
2023-03-02T00:58:06.947Z,100936.44
2023-03-02T01:25:39.204Z,100915.69
2023-03-02T01:28:08.279Z,100902.50
2023-03-02T01:30:36.847Z,100912.72
2023-03-02T01:33:04.717Z,100904.31
2023-03-02T01:35:32.901Z,100897.41
2023-03-02T01:38:00.802Z,100902.75
2023-03-02T01:40:29.611Z,100903.84
2023-03-02T01:43:02.537Z,100879.84
2023-03-02T02:09:20.482Z,100894.47
2023-03-02T02:11:49.326Z,100894.47
2023-03-02T02:14:17.681Z,100907.25
2023-03-02T02:16:45.684Z,100886.94
2023-03-02T02:19:45.016Z,100874.47
2023-03-02T02:22:22.563Z,100894.94
2023-03-02T02:24:58.664Z,100894.47
2023-03-02T02:48:19.371Z,100868.94
2023-03-02T02:51:01.438Z,100868.94
2023-03-02T02:53:41.352Z,100893.78
2023-03-02T02:56:10.762Z,100882.28
2023-03-02T02:58:52.652Z,100871.63
2023-03-02T03:01:26.128Z,100869.94
2023-03-02T03:03:57.555Z,100867.81
2023-03-02T03:06:30.698Z,100866.06
2023-03-02T03:09:01.245Z,100865.00
2023-03-02T03:11:34.155Z,100865.69
2023-03-02T03:32:07.543Z,100868.81
2023-03-02T03:34:41.087Z,100868.81
2023-03-02T03:37:11.585Z,100871.84
2023-03-02T03:39:40.570Z,100870.19
2023-03-02T03:42:08.834Z,100842.97
2023-03-02T03:44:37.681Z,100857.56
2023-03-02T03:47:06.252Z,100873.97
2023-03-02T03:49:34.997Z,100875.13
2023-03-02T04:15:08.527Z,100887.22
2023-03-02T04:17:37.634Z,100887.22
2023-03-02T04:20:08.979Z,100892.97
2023-03-02T04:22:48.644Z,100880.09
2023-03-02T04:25:22.875Z,100893.34
2023-03-02T04:27:52.753Z,100870.78
2023-03-02T04:30:24.670Z,100893.97
2023-03-02T04:32:53.632Z,100895.09
2023-03-02T04:35:35.502Z,100895.31
2023-03-02T04:58:56.596Z,100892.56
2023-03-02T05:01:25.418Z,100892.56
2023-03-02T05:03:53.529Z,100850.03
2023-03-02T05:06:25.339Z,100884.09
2023-03-02T05:08:54.037Z,100905.94
2023-03-02T05:11:24.544Z,100899.69
2023-03-02T05:13:58.264Z,100902.38
2023-03-02T05:16:31.271Z,100899.41
2023-03-02T05:19:00.619Z,100899.03
2023-03-02T05:41:52.300Z,100890.91
2023-03-02T05:44:20.901Z,100890.91
2023-03-02T05:46:49.753Z,100896.69
2023-03-02T05:49:17.891Z,100891.81
2023-03-02T05:51:46.202Z,100896.91
2023-03-02T05:54:14.516Z,100905.00
2023-03-02T05:56:42.592Z,100898.59
2023-03-02T05:59:10.744Z,100911.56
2023-03-02T06:01:39.053Z,100911.56
2023-03-02T06:06:51.580Z,100915.97
2023-03-02T06:09:20.231Z,100921.31
2023-03-02T06:23:04.725Z,100917.97
2023-03-02T06:28:24.874Z,100927.06
2023-03-02T06:30:53.813Z,100913.38
2023-03-02T06:33:22.189Z,100836.91
2023-03-02T06:35:50.618Z,100934.84
2023-03-02T06:38:18.998Z,100935.22
2023-03-02T06:40:47.146Z,100931.50
2023-03-02T06:43:15.374Z,100937.31
2023-03-02T06:45:45.881Z,100932.28
2023-03-02T06:48:13.908Z,100916.81
2023-03-02T06:50:42.730Z,100915.47
2023-03-02T06:53:12.375Z,100914.34
2023-03-02T06:55:40.688Z,100930.91
2023-03-02T06:58:13.248Z,100937.09
2023-03-02T07:00:42.429Z,100935.28
2023-03-02T07:03:10.459Z,100929.06
2023-03-02T07:05:38.631Z,100938.69
2023-03-02T07:08:18.305Z,100941.31
2023-03-02T07:10:46.261Z,100940.78
2023-03-02T07:26:23.301Z,100941.31
2023-03-02T07:36:16.802Z,100939.63
2023-03-02T07:38:45.731Z,100939.63
2023-03-02T07:41:15.609Z,100942.47
2023-03-02T07:43:43.801Z,100947.19
2023-03-02T07:46:12.624Z,100938.50
2023-03-02T07:48:40.875Z,100916.47
2023-03-02T07:51:08.895Z,100940.59
2023-03-02T07:53:37.281Z,100938.66
2023-03-02T07:56:11.233Z,100929.97
2023-03-02T07:58:39.636Z,100933.13
2023-03-02T08:01:07.851Z,100933.97
2023-03-02T08:03:37.115Z,100932.44
2023-03-02T08:06:13.012Z,100941.94
2023-03-02T08:08:46.404Z,100933.09
2023-03-02T08:11:20.635Z,100934.63
2023-03-02T08:13:49.127Z,100931.75
2023-03-02T08:20:04.001Z,100925.63
2023-03-02T08:22:36.320Z,100931.81
2023-03-02T08:29:25.097Z,100903.34
2023-03-02T08:32:47.116Z,100931.87
2023-03-02T08:51:08.930Z,100906.81
2023-03-02T08:53:42.238Z,100904.66
2023-03-02T08:56:28.917Z,100891.59
2023-03-02T08:59:03.247Z,100898.84
2023-03-02T09:01:34.698Z,100906.41
2023-03-02T09:04:05.266Z,100871.22
2023-03-02T09:06:36.233Z,100895.19
2023-03-02T09:09:05.426Z,100896.59
2023-03-02T09:11:34.696Z,100884.81
2023-03-02T09:14:03.476Z,100895.03
2023-03-02T09:16:32.239Z,100859.78
2023-03-02T09:19:00.645Z,100895.13
2023-03-02T09:21:28.936Z,100831.34
2023-03-02T09:23:59.549Z,100898.81
2023-03-02T09:29:10.772Z,100879.81
2023-03-02T09:34:05.871Z,100889.09
2023-03-02T09:39:16.694Z,100885.53
2023-03-02T09:42:03.437Z,100848.69
2023-03-02T09:44:41.621Z,100882.59
2023-03-02T09:47:35.854Z,100878.31
2023-03-02T09:50:25.655Z,100874.22
2023-03-02T09:53:08.840Z,100869.06
2023-03-02T09:55:37.969Z,100873.91
2023-03-02T09:58:17.558Z,100878.59
2023-03-02T10:00:47.366Z,100877.47
2023-03-02T10:03:35.039Z,100872.00
2023-03-02T10:06:03.212Z,100877.47
2023-03-02T10:08:36.758Z,100864.91
2023-03-02T10:11:18.974Z,100877.28
2023-03-02T10:13:53.831Z,100866.41
2023-03-02T10:17:16.446Z,100878.97
2023-03-02T10:19:53.845Z,100875.34
2023-03-02T10:28:26.606Z,100865.84
2023-03-02T10:31:10.481Z,100871.47
2023-03-02T10:33:40.703Z,100874.31
2023-03-02T10:36:32.097Z,100875.28
2023-03-02T10:39:01.127Z,100874.63
2023-03-02T10:44:34.145Z,100856.66
2023-03-02T10:47:02.819Z,100864.50
2023-03-02T10:54:50.691Z,100855.41
2023-03-02T10:57:31.182Z,100854.25
2023-03-02T11:00:23.537Z,100845.41
2023-03-02T11:02:57.548Z,100841.50
2023-03-02T11:05:41.782Z,100847.66
2023-03-02T11:08:33.186Z,100847.91
2023-03-02T11:11:03.702Z,100834.50
2023-03-02T11:13:34.112Z,100827.50
2023-03-02T11:16:18.778Z,100805.28
2023-03-02T11:18:57.502Z,100832.16
2023-03-02T11:21:29.681Z,100814.47
2023-03-02T11:24:05.392Z,100828.97
2023-03-02T11:26:51.979Z,100834.72
2023-03-02T11:29:45.885Z,100840.19
2023-03-02T11:32:20.318Z,100824.63
2023-03-02T11:34:58.468Z,100830.41
2023-03-02T11:45:13.891Z,100823.94
2023-03-02T12:06:07.264Z,100814.59
2023-03-02T12:08:44.962Z,100813.00
2023-03-02T12:11:18.876Z,100804.56
2023-03-02T12:13:59.825Z,100811.94
2023-03-02T12:16:41.119Z,100806.87
2023-03-02T12:19:38.946Z,100804.94
2023-03-02T12:22:10.798Z,100789.84
2023-03-02T12:24:40.767Z,100795.56
2023-03-02T12:27:26.223Z,100789.81
2023-03-02T12:30:17.226Z,100788.94
2023-03-02T12:32:58.400Z,100790.31
2023-03-02T12:35:27.524Z,100786.78
2023-03-02T12:38:31.212Z,100782.97
2023-03-02T13:13:43.295Z,100733.00
2023-03-02T13:16:26.912Z,100733.00
2023-03-02T13:18:58.232Z,100757.88
2023-03-02T13:21:37.954Z,100754.19
2023-03-02T13:24:33.926Z,100755.72
2023-03-02T13:27:18.582Z,100753.78
2023-03-02T13:29:55.743Z,100746.06
2023-03-02T13:32:36.319Z,100744.72
2023-03-02T13:35:26.580Z,100735.31
2023-03-02T13:38:03.074Z,100732.41
2023-03-02T13:40:38.011Z,100735.16
2023-03-02T13:43:33.704Z,100734.59
2023-03-02T13:46:27.614Z,100733.50
2023-03-02T13:49:10.621Z,100725.88
2023-03-02T13:51:46.323Z,100727.75
2023-03-02T13:54:26.013Z,100724.19
2023-03-02T13:56:54.578Z,100720.94
2023-03-02T13:59:26.580Z,100651.50
2023-03-02T14:01:54.957Z,100722.34
2023-03-02T14:04:24.060Z,100716.56
2023-03-02T14:40:25.824Z,100667.37
2023-03-02T14:42:54.781Z,100667.37
2023-03-02T14:45:23.198Z,100704.97
2023-03-02T14:47:51.188Z,100698.63
2023-03-02T14:50:20.169Z,100685.69
2023-03-02T14:52:55.249Z,100706.88
2023-03-02T14:55:29.491Z,100701.53
2023-03-02T14:58:04.221Z,100708.00
2023-03-02T15:00:32.826Z,100699.81
2023-03-02T15:03:01.059Z,100678.91
2023-03-02T15:15:18.078Z,100702.09
2023-03-02T15:27:42.792Z,100697.94
2023-03-02T15:30:13.862Z,100697.94
2023-03-02T15:32:43.954Z,100707.59
2023-03-02T15:35:15.257Z,100703.44
2023-03-02T15:37:43.264Z,100706.16
2023-03-02T15:40:13.946Z,100698.53
2023-03-02T15:42:44.370Z,100631.25
2023-03-02T15:45:12.195Z,100709.00
2023-03-02T15:47:40.172Z,100703.19
2023-03-02T15:50:10.747Z,100712.63
2023-03-02T15:52:43.450Z,100710.00
2023-03-02T16:18:36.691Z,100695.59
2023-03-02T16:21:05.692Z,100695.59
2023-03-02T16:23:33.742Z,100704.66
2023-03-02T16:26:10.259Z,100702.53
2023-03-02T16:28:38.738Z,100712.72
2023-03-02T16:31:13.488Z,100706.78
2023-03-02T16:33:42.525Z,100704.94
2023-03-02T16:36:11.540Z,100711.75
2023-03-02T16:38:39.777Z,100710.75
2023-03-02T16:59:17.661Z,100722.41
2023-03-02T17:01:46.501Z,100700.44
2023-03-02T17:04:14.902Z,100729.81
2023-03-02T17:06:59.987Z,100726.84
2023-03-02T17:09:29.314Z,100733.44
2023-03-02T17:11:57.674Z,100735.91
2023-03-02T17:14:26.165Z,100745.41
2023-03-02T17:16:56.564Z,100732.37
2023-03-02T17:19:31.279Z,100741.75
2023-03-02T17:42:57.674Z,100745.84
2023-03-02T17:45:31.240Z,100745.78
2023-03-02T17:48:00.168Z,100747.06
2023-03-02T17:50:31.942Z,100751.19
2023-03-02T17:53:00.319Z,100742.78
2023-03-02T17:55:29.170Z,100745.25
2023-03-02T17:57:57.372Z,100750.41
2023-03-02T18:00:27.251Z,100742.84
2023-03-02T18:02:55.949Z,100747.06
2023-03-02T18:26:20.014Z,100744.91
2023-03-02T18:28:48.821Z,100744.91
2023-03-02T18:31:19.053Z,100740.53
2023-03-02T18:33:47.850Z,100743.16
2023-03-02T18:36:16.808Z,100738.31
2023-03-02T18:38:45.637Z,100737.03
2023-03-02T18:41:14.460Z,100737.31
2023-03-02T18:43:43.490Z,100737.41
2023-03-02T19:04:08.868Z,100742.09
2023-03-02T19:06:37.871Z,100742.09
2023-03-02T19:09:06.449Z,100741.00
2023-03-02T19:11:34.743Z,100747.28
2023-03-02T19:14:03.415Z,100746.59
2023-03-02T19:16:31.698Z,100745.37
2023-03-02T19:19:00.121Z,100750.47
2023-03-02T19:21:28.387Z,100731.91
2023-03-02T19:26:40.425Z,100746.81
2023-03-02T19:31:46.150Z,100747.00
2023-03-02T19:34:15.312Z,100746.28
2023-03-02T19:36:45.038Z,100734.53
2023-03-02T19:39:13.385Z,100753.28
2023-03-02T19:41:42.070Z,100751.97
2023-03-02T19:44:12.330Z,100755.69
2023-03-02T19:46:40.574Z,100762.41
2023-03-02T19:49:09.930Z,100758.06
2023-03-02T20:09:37.333Z,100740.91
2023-03-02T20:12:08.245Z,100740.91
2023-03-02T20:14:36.329Z,100751.97
2023-03-02T20:17:05.238Z,100753.75
2023-03-02T20:19:34.347Z,100757.34
2023-03-02T20:22:03.863Z,100753.84
2023-03-02T20:24:32.071Z,100746.75
2023-03-02T20:27:00.411Z,100752.31
2023-03-02T20:47:15.472Z,100749.53
2023-03-02T20:49:44.800Z,100749.53
2023-03-02T20:52:13.086Z,100752.81
2023-03-02T20:54:42.626Z,100746.06
2023-03-02T20:57:16.134Z,100744.94
2023-03-02T20:59:46.080Z,100747.22
2023-03-02T21:05:00.448Z,100743.59
2023-03-02T21:25:00.814Z,100726.75
2023-03-02T21:27:29.418Z,100726.75
2023-03-02T21:30:01.874Z,100728.72
2023-03-02T21:32:33.380Z,100723.06
2023-03-02T21:35:02.598Z,100717.25
2023-03-02T21:37:31.146Z,100719.63
2023-03-02T21:42:48.723Z,100722.84
2023-03-02T22:03:07.556Z,100706.72
2023-03-02T22:05:36.247Z,100706.72
2023-03-02T22:08:04.179Z,100702.28
2023-03-02T22:10:38.803Z,100707.03
2023-03-02T22:13:21.217Z,100698.25
2023-03-02T22:15:55.046Z,100698.37
2023-03-02T22:18:25.914Z,100700.88
2023-03-02T22:20:54.364Z,100699.50
2023-03-02T22:39:01.152Z,100698.34
2023-03-02T22:41:29.865Z,100698.34
2023-03-02T22:43:58.014Z,100705.50
2023-03-02T22:46:26.192Z,100706.00
2023-03-02T22:48:55.133Z,100701.25
2023-03-02T22:51:30.555Z,100701.66
2023-03-02T22:54:00.543Z,100693.16
2023-03-02T22:56:40.857Z,100700.22
2023-03-02T23:14:59.900Z,100688.22
2023-03-02T23:17:39.575Z,100688.22
2023-03-02T23:20:11.137Z,100699.03
2023-03-02T23:22:39.480Z,100685.31
2023-03-02T23:25:08.825Z,100680.47
2023-03-02T23:27:36.773Z,100680.38
2023-03-02T23:30:06.533Z,100681.19
2023-03-02T23:32:40.843Z,100676.94
2023-03-02T23:52:35.223Z,100663.97
2023-03-02T23:55:04.704Z,100663.97
2023-03-02T23:57:32.584Z,100656.53
